Погода Варзеландияна 2 недели

Минас-Жерайс, Бразилия

22 мая-04 июня
  • 22мая
    Сегодня
    +18°
    +31°
    Пасмурно, сплошная облачность
    ВремяПогодаТемператураВлажностьДавлениеВетер, м/сВероятность осадков
    00:00Ясно и безоблачно+22°C61 %701 мм4.0 м/с5 %
    03:00Ясно и безоблачно+18°C77 %700 мм3.6 м/с5 %
    06:00Ясно и безоблачно+17°C85 %700 мм3.6 м/с5 %
    09:00Практически безоблачно+23°C68 %703 мм4.8 м/с5 %
    12:00Небольшая облачность+29°C47 %702 мм3.9 м/с5 %
    15:00Пасмурно, сплошная облачность+30°C44 %700 мм3.4 м/с5 %
    18:00Пасмурно, сплошная облачность+27°C52 %700 мм4.1 м/с5 %
    21:00Облачно с прояснениями+23°C60 %701 мм3.4 м/с5 %
  • 23мая
    Четверг
    +16°
    +31°
    Ясно и безоблачно
    ВремяПогодаТемператураВлажностьДавлениеВетер, м/сВероятность осадков
    00:00Практически безоблачно+22°C64 %700 мм3.4 м/с4 %
    03:00Ясно и безоблачно+20°C74 %699 мм3.0 м/с1 %
    06:00Ясно и безоблачно+18°C82 %700 мм3.0 м/с5 %
    09:00Ясно и безоблачно+23°C68 %701 мм3.7 м/с5 %
    12:00Ясно и безоблачно+29°C48 %701 мм2.7 м/с5 %
    15:00Ясно и безоблачно+30°C40 %699 мм2.2 м/с5 %
    18:00Ясно и безоблачно+26°C58 %699 мм1.6 м/с5 %
    21:00Ясно и безоблачно+23°C56 %699 мм2.8 м/с5 %
  • 24мая
    Пятница
    +15°
    +31°
    Ясно и безоблачно
    ВремяПогодаТемператураВлажностьДавлениеВетер, м/сВероятность осадков
    00:00Ясно и безоблачно+20°C65 %699 мм1.9 м/с5 %
    03:00Ясно и безоблачно+18°C72 %697 мм1.8 м/с5 %
    06:00Ясно и безоблачно+16°C81 %698 мм1.8 м/с5 %
    09:00Ясно и безоблачно+23°C67 %701 мм2.9 м/с5 %
    12:00Ясно и безоблачно+28°C46 %700 мм2.1 м/с5 %
    15:00Ясно и безоблачно+30°C39 %698 мм1.7 м/с5 %
    18:00Практически безоблачно+26°C50 %698 мм2.4 м/с5 %
    21:00Ясно и безоблачно+22°C61 %698 мм1.6 м/с5 %
  • 25мая
    Суббота
    +14°
    +31°
    Небольшая облачность
    ВремяПогодаТемператураВлажностьДавлениеВетер, м/сВероятность осадков
    00:00Небольшая облачность+20°C64 %698 мм1.6 м/с5 %
    03:00Облачно с прояснениями+18°C69 %697 мм2.2 м/с5 %
    06:00Облачно с прояснениями+16°C74 %697 мм2.2 м/с5 %
    09:00Небольшая облачность+24°C51 %701 мм2.6 м/с5 %
    12:00Небольшая облачность+29°C36 %700 мм2.6 м/с5 %
    15:00Небольшая облачность+31°C31 %698 мм3.2 м/с5 %
    18:00Облачно с прояснениями+26°C42 %698 мм2.4 м/с5 %
    21:00Облачно с прояснениями+22°C45 %699 мм2.6 м/с5 %
  • 26мая
    Воскресенье
    +17°
    +31°
    Ясно и безоблачно
    ВремяПогодаТемператураВлажностьДавлениеВетер, м/сВероятность осадков
    00:00Облачно с прояснениями+21°C53 %699 мм2.5 м/с5 %
    03:00Облачно с прояснениями+18°C58 %698 мм2.4 м/с5 %
    06:00Ясно и безоблачно+15°C68 %698 мм1.8 м/с5 %
    09:00Практически безоблачно+24°C59 %701 мм2.6 м/с5 %
    12:00Ясно и безоблачно+29°C43 %700 мм3.3 м/с5 %
    15:00Ясно и безоблачно+31°C37 %699 мм2.9 м/с5 %
    18:00Ясно и безоблачно+26°C54 %698 мм0.4 м/с5 %
    21:00Ясно и безоблачно+21°C59 %698 мм1.0 м/с4 %
Мы используем cookies
Соглашаюсь